createdAt,value
2022-09-30T00:02:12.227Z,99986.22
2022-09-30T00:04:43.618Z,99993.25
2022-09-30T00:07:14.945Z,99961.97
2022-09-30T00:09:47.969Z,99991.69
2022-09-30T00:12:19.694Z,99952.47
2022-09-30T00:14:51.027Z,99980.47
2022-09-30T00:17:23.362Z,99982.16
2022-09-30T00:19:54.654Z,99978.78
2022-09-30T00:22:25.976Z,99974.41
2022-09-30T00:24:57.291Z,99950.94
2022-09-30T00:27:28.855Z,99975.34
2022-09-30T00:30:00.180Z,99985.03
2022-09-30T00:32:31.521Z,99958.06
2022-09-30T00:35:02.951Z,99986.94
2022-09-30T00:37:34.281Z,99947.66
2022-09-30T00:40:06.082Z,99967.00
2022-09-30T00:42:40.956Z,100000.09
2022-09-30T00:45:13.629Z,99970.56
2022-09-30T00:48:11.340Z,99997.53
2022-09-30T00:50:47.057Z,99995.91
2022-09-30T00:53:30.017Z,100003.78
2022-09-30T00:56:07.401Z,99989.94
2022-09-30T00:59:02.329Z,99989.13
2022-09-30T01:01:35.994Z,100010.03
2022-09-30T01:04:13.222Z,100009.16
2022-09-30T01:06:44.590Z,100011.75
2022-09-30T01:09:16.936Z,100010.88
2022-09-30T01:11:48.600Z,100012.56
2022-09-30T01:14:23.358Z,100020.44
2022-09-30T01:17:20.725Z,100017.84
2022-09-30T01:20:29.367Z,100018.75
2022-09-30T01:23:33.135Z,100021.41
2022-09-30T01:26:36.894Z,100019.69
2022-09-30T01:29:33.629Z,100021.44
2022-09-30T01:32:31.538Z,100000.41
2022-09-30T01:35:15.406Z,100019.59
2022-09-30T01:37:49.409Z,100018.63
2022-09-30T01:40:26.824Z,100015.91
2022-09-30T01:43:11.887Z,100016.66
2022-09-30T01:46:00.101Z,100022.56
2022-09-30T01:48:53.343Z,100035.59
2022-09-30T01:51:38.193Z,100034.53
2022-09-30T01:54:37.661Z,100019.59
2022-09-30T01:57:24.509Z,99994.09
2022-09-30T02:00:07.303Z,100040.31
2022-09-30T02:02:46.683Z,100034.88
2022-09-30T02:05:24.601Z,100042.69
2022-09-30T02:08:07.856Z,100034.75
2022-09-30T02:10:47.386Z,100054.72
2022-09-30T02:13:24.588Z,100053.75
2022-09-30T02:16:01.222Z,100033.50
2022-09-30T02:18:42.116Z,100043.94
2022-09-30T02:21:17.637Z,100038.78
2022-09-30T02:23:54.206Z,100033.66
2022-09-30T02:26:29.617Z,100053.03
2022-09-30T02:29:05.812Z,100051.41
2022-09-30T02:31:42.848Z,100054.13
2022-09-30T02:34:26.996Z,100045.44
2022-09-30T02:37:14.638Z,100058.66
2022-09-30T02:40:07.766Z,100056.94
2022-09-30T02:42:41.464Z,100046.47
2022-09-30T02:45:16.708Z,100065.81
2022-09-30T02:47:58.821Z,100067.59
2022-09-30T02:50:33.018Z,100062.38
2022-09-30T02:53:18.490Z,100073.00
2022-09-30T02:56:16.729Z,100066.06
2022-09-30T02:58:50.866Z,100067.00
2022-09-30T03:01:22.718Z,100069.72
2022-09-30T03:03:58.873Z,100069.72
2022-09-30T03:06:30.394Z,100056.69
2022-09-30T03:09:01.771Z,100054.13
2022-09-30T03:11:33.207Z,100068.16
2022-09-30T03:14:32.811Z,100069.03
2022-09-30T03:17:28.895Z,100070.84
2022-09-30T03:20:25.680Z,100078.81
2022-09-30T03:23:37.880Z,100077.13
2022-09-30T03:26:39.777Z,100086.00
2022-09-30T03:29:28.164Z,100076.53
2022-09-30T03:32:21.065Z,100087.88
2022-09-30T03:35:24.838Z,100089.66
2022-09-30T03:38:23.898Z,100089.69
2022-09-30T03:41:08.323Z,100078.38
2022-09-30T03:43:55.810Z,100090.66
2022-09-30T03:46:34.715Z,100079.25
2022-09-30T03:49:10.776Z,100095.06
2022-09-30T03:51:42.496Z,100090.75
2022-09-30T03:54:14.543Z,100097.88
2022-09-30T03:56:45.806Z,100090.09
2022-09-30T03:59:24.208Z,100098.03
2022-09-30T04:01:57.436Z,100107.69
2022-09-30T04:04:28.753Z,100110.38
2022-09-30T04:07:00.246Z,100113.91
2022-09-30T04:09:31.568Z,100097.38
2022-09-30T04:12:03.938Z,100110.44
2022-09-30T04:14:35.814Z,100106.16
2022-09-30T04:17:07.110Z,100098.41
2022-09-30T04:19:40.212Z,100111.47
2022-09-30T04:22:11.652Z,100119.31
2022-09-30T04:24:43.811Z,100108.88
2022-09-30T04:27:15.230Z,100126.19
2022-09-30T04:29:46.551Z,100133.16
2022-09-30T04:32:17.866Z,100133.06
2022-09-30T04:34:49.122Z,100129.44
2022-09-30T04:37:21.173Z,100123.31
2022-09-30T04:39:52.570Z,100138.19
2022-09-30T04:42:24.311Z,100130.28
2022-09-30T04:44:55.721Z,100146.16
2022-09-30T04:47:27.016Z,100140.13
2022-09-30T04:49:58.306Z,100144.63
2022-09-30T04:52:29.605Z,100142.09
2022-09-30T04:55:00.874Z,100150.09
2022-09-30T04:57:32.193Z,100153.69
2022-09-30T05:00:05.350Z,100153.75
2022-09-30T05:02:36.658Z,100164.38
2022-09-30T05:05:08.424Z,100154.00
2022-09-30T05:07:40.649Z,100157.50
2022-09-30T05:10:12.553Z,100169.84
2022-09-30T05:12:45.101Z,100179.56
2022-09-30T05:15:16.504Z,100183.97
2022-09-30T05:17:50.896Z,100175.25
2022-09-30T05:20:22.227Z,100181.38
2022-09-30T05:22:56.931Z,100185.78
2022-09-30T05:25:28.425Z,100187.53
2022-09-30T05:27:59.878Z,100166.53
2022-09-30T05:30:31.198Z,100177.03
2022-09-30T05:33:02.468Z,100174.41
2022-09-30T05:35:34.745Z,100180.63
2022-09-30T05:38:06.032Z,100187.66
2022-09-30T05:40:41.443Z,100161.56
2022-09-30T05:43:12.817Z,100193.03
2022-09-30T05:45:55.255Z,100203.59
2022-09-30T05:48:27.394Z,100203.63
2022-09-30T05:51:00.843Z,100196.63
2022-09-30T05:53:32.933Z,100204.50
2022-09-30T05:56:08.860Z,100203.63
2022-09-30T05:58:41.879Z,100209.72
2022-09-30T06:01:15.103Z,100210.53
2022-09-30T06:03:47.457Z,100205.22
2022-09-30T06:06:22.016Z,100208.63
2022-09-30T06:08:53.305Z,100202.41
2022-09-30T06:11:25.159Z,100212.84
2022-09-30T06:13:57.290Z,100205.75
2022-09-30T06:16:28.691Z,100215.31
2022-09-30T06:18:59.969Z,100225.63
2022-09-30T06:21:31.447Z,100223.69
2022-09-30T06:24:03.138Z,100227.91
2022-09-30T06:26:34.384Z,100219.81
2022-09-30T06:29:05.762Z,100230.16
2022-09-30T06:31:37.262Z,100235.22
2022-09-30T06:34:10.497Z,100230.59
2022-09-30T06:36:41.935Z,100229.50
2022-09-30T06:39:13.861Z,100216.09
2022-09-30T06:41:45.341Z,100231.63
2022-09-30T06:44:16.763Z,100233.09
2022-09-30T06:46:53.664Z,100231.94
2022-09-30T06:49:32.962Z,100236.03
2022-09-30T06:52:12.568Z,100230.53
2022-09-30T06:54:44.101Z,100233.63
2022-09-30T06:57:15.414Z,100238.59
2022-09-30T06:59:47.132Z,100243.59
2022-09-30T07:02:18.815Z,100253.88
2022-09-30T07:04:50.225Z,100241.28
2022-09-30T07:07:22.026Z,100248.75
2022-09-30T07:09:58.853Z,100253.72
2022-09-30T07:12:30.964Z,100243.59
2022-09-30T07:15:02.382Z,100244.00
2022-09-30T07:17:33.705Z,100227.97
2022-09-30T07:20:05.402Z,100246.81
2022-09-30T07:22:36.678Z,100255.19
2022-09-30T07:25:09.668Z,100247.72
2022-09-30T07:27:41.285Z,100245.56
2022-09-30T07:30:20.388Z,100250.41
2022-09-30T07:32:56.004Z,100259.72
2022-09-30T07:35:27.341Z,100263.72
2022-09-30T07:37:59.755Z,100236.22
2022-09-30T07:40:31.293Z,100240.06
2022-09-30T07:43:03.155Z,100250.94
2022-09-30T07:45:37.689Z,100245.31
2022-09-30T07:48:29.019Z,100254.41
2022-09-30T07:51:00.447Z,100253.09
2022-09-30T07:53:32.379Z,100257.78
2022-09-30T07:56:08.168Z,100266.13
2022-09-30T07:58:39.553Z,100259.41
2022-09-30T08:01:11.942Z,100257.25
2022-09-30T08:03:44.933Z,100276.00
2022-09-30T08:06:18.285Z,100267.47
2022-09-30T08:08:52.557Z,100258.06
2022-09-30T08:11:24.942Z,100259.22
2022-09-30T08:13:56.838Z,100271.78
2022-09-30T08:16:28.196Z,100250.38
2022-09-30T08:19:02.382Z,100262.06
2022-09-30T08:21:33.646Z,100265.88
2022-09-30T08:24:05.156Z,100262.81
2022-09-30T08:26:36.744Z,100267.25
2022-09-30T08:29:12.384Z,100265.13
2022-09-30T08:31:45.588Z,100270.94
2022-09-30T08:34:17.554Z,100274.09
2022-09-30T08:36:48.806Z,100275.44
2022-09-30T08:39:20.126Z,100286.66
2022-09-30T08:42:35.574Z,100287.00
2022-09-30T08:45:20.038Z,100286.59
2022-09-30T08:48:02.959Z,100289.41
2022-09-30T08:51:03.225Z,100288.59
2022-09-30T08:53:41.241Z,100294.47
2022-09-30T08:56:25.646Z,100287.78
2022-09-30T08:59:06.800Z,100293.44
2022-09-30T09:01:42.733Z,100292.75
2022-09-30T09:04:14.834Z,100295.63
2022-09-30T09:07:01.330Z,100291.75
2022-09-30T09:09:42.610Z,100290.38
2022-09-30T09:12:40.357Z,100294.47
2022-09-30T09:15:23.721Z,100305.78
2022-09-30T09:18:23.769Z,100299.09
2022-09-30T09:21:03.664Z,100305.59
2022-09-30T09:23:35.606Z,100299.91
2022-09-30T09:26:09.393Z,100304.69
2022-09-30T09:29:15.184Z,100300.63
2022-09-30T09:31:48.236Z,100298.16
2022-09-30T09:34:19.665Z,100292.41
2022-09-30T09:37:08.475Z,100292.09
2022-09-30T09:40:04.176Z,100303.59
2022-09-30T09:43:09.907Z,100302.50
2022-09-30T09:46:04.132Z,100307.91
2022-09-30T09:48:35.933Z,100311.53
2022-09-30T09:51:28.605Z,100306.41
2022-09-30T09:54:04.941Z,100309.16
2022-09-30T09:56:37.768Z,100310.50
2022-09-30T09:59:15.986Z,100311.19
2022-09-30T10:01:54.061Z,100309.13
2022-09-30T10:04:29.446Z,100315.06
2022-09-30T10:07:21.891Z,100320.75
2022-09-30T10:10:23.574Z,100310.34
2022-09-30T10:12:55.566Z,100322.47
2022-09-30T10:15:27.456Z,100314.56
2022-09-30T10:18:00.835Z,100318.06
2022-09-30T10:20:34.802Z,100320.88
2022-09-30T10:23:19.856Z,100324.00
2022-09-30T10:26:03.627Z,100302.50
2022-09-30T10:28:50.364Z,100312.75
2022-09-30T10:31:33.164Z,100318.13
2022-09-30T10:34:28.726Z,100317.00
2022-09-30T10:37:14.394Z,100322.19
2022-09-30T10:39:55.462Z,100317.69
2022-09-30T10:42:31.235Z,100316.75
2022-09-30T10:45:17.934Z,100312.75
2022-09-30T10:47:55.333Z,100313.22
2022-09-30T10:50:27.699Z,100321.69
2022-09-30T10:53:04.469Z,100301.97
2022-09-30T10:55:42.978Z,100310.91
2022-09-30T10:58:25.865Z,100312.38
2022-09-30T11:01:09.315Z,100314.50
2022-09-30T11:03:54.675Z,100305.84
2022-09-30T11:06:28.548Z,100304.88
2022-09-30T11:09:20.413Z,100308.56
2022-09-30T11:11:57.599Z,100313.63
2022-09-30T11:14:43.367Z,100318.91
2022-09-30T11:17:25.867Z,100321.78
2022-09-30T11:20:10.746Z,100318.94
2022-09-30T11:22:51.554Z,100310.00
2022-09-30T11:26:01.353Z,100310.75
2022-09-30T11:29:03.213Z,100314.91
2022-09-30T11:31:56.384Z,100298.06
2022-09-30T11:34:47.078Z,100309.97
2022-09-30T11:37:33.462Z,100316.03
2022-09-30T11:40:29.364Z,100317.75
2022-09-30T11:43:14.071Z,100306.50
2022-09-30T11:46:08.847Z,100308.91
2022-09-30T11:49:00.238Z,100299.09
2022-09-30T11:51:43.920Z,100300.06
2022-09-30T11:54:33.469Z,100297.75
2022-09-30T11:57:13.679Z,100295.53
2022-09-30T11:59:58.104Z,100299.88
2022-09-30T12:02:37.598Z,100289.47
2022-09-30T12:05:34.211Z,100293.91
2022-09-30T12:08:19.811Z,100299.72
2022-09-30T12:10:55.618Z,100301.66
2022-09-30T12:13:29.725Z,100303.22
2022-09-30T12:16:04.678Z,100302.97
2022-09-30T12:18:41.114Z,100284.94
2022-09-30T12:21:21.848Z,100291.41
2022-09-30T12:24:03.452Z,100307.25
2022-09-30T12:26:35.152Z,100301.03
2022-09-30T12:29:48.564Z,100303.44
2022-09-30T12:32:36.180Z,100303.09
2022-09-30T12:35:37.851Z,100280.44
2022-09-30T12:38:43.154Z,100290.38
2022-09-30T12:41:40.979Z,100302.56
2022-09-30T12:44:41.154Z,100293.06
2022-09-30T12:47:24.235Z,100296.19
2022-09-30T12:49:59.160Z,100305.16
2022-09-30T12:52:33.534Z,100301.63
2022-09-30T12:55:28.062Z,100302.47
2022-09-30T12:58:03.168Z,100297.97
2022-09-30T13:00:36.129Z,100291.06
2022-09-30T13:03:15.362Z,100293.34
2022-09-30T13:05:56.199Z,100290.28
2022-09-30T13:08:44.120Z,100283.94
2022-09-30T13:11:42.746Z,100283.59
2022-09-30T13:14:37.737Z,100283.06
2022-09-30T13:17:09.338Z,100285.84
2022-09-30T13:19:45.494Z,100287.38
2022-09-30T13:22:19.939Z,100275.41
2022-09-30T13:25:00.545Z,100272.25
2022-09-30T13:27:44.286Z,100275.34
2022-09-30T13:30:15.583Z,100272.38
2022-09-30T13:32:57.477Z,100280.03
2022-09-30T13:35:40.705Z,100270.28
2022-09-30T13:38:12.136Z,100275.88
2022-09-30T13:41:01.812Z,100274.97
2022-09-30T13:43:39.548Z,100267.97
2022-09-30T13:46:16.730Z,100264.06
2022-09-30T13:48:53.322Z,100274.53
2022-09-30T13:51:27.838Z,100270.41
2022-09-30T13:54:06.779Z,100264.69
2022-09-30T13:56:40.728Z,100260.53
2022-09-30T13:59:41.566Z,100260.53
2022-09-30T14:02:31.657Z,100258.44
2022-09-30T14:05:15.473Z,100252.34
2022-09-30T14:08:31.727Z,100254.19
2022-09-30T14:11:22.480Z,100249.88
2022-09-30T14:14:27.881Z,100254.94
2022-09-30T14:17:34.331Z,100247.41
2022-09-30T14:20:24.045Z,100256.03
2022-09-30T14:22:56.666Z,100252.38
2022-09-30T14:25:38.690Z,100254.00
2022-09-30T14:28:17.708Z,100242.16
2022-09-30T14:31:08.085Z,100261.22
2022-09-30T14:33:42.670Z,100253.94
2022-09-30T14:36:18.846Z,100247.69
2022-09-30T14:38:58.517Z,100244.84
2022-09-30T14:41:31.330Z,100248.88
2022-09-30T14:44:08.069Z,100247.22
2022-09-30T14:46:43.249Z,100245.94
2022-09-30T14:49:19.476Z,100236.84
2022-09-30T14:51:51.079Z,100248.97
2022-09-30T14:54:26.496Z,100244.47
2022-09-30T14:57:01.505Z,100238.13
2022-09-30T14:59:36.653Z,100244.47
2022-09-30T15:02:18.337Z,100231.19
2022-09-30T15:04:52.737Z,100224.00
2022-09-30T15:07:24.082Z,100235.97
2022-09-30T15:10:01.607Z,100233.63
2022-09-30T15:12:36.965Z,100229.94
2022-09-30T15:15:37.789Z,100240.84
2022-09-30T15:18:45.940Z,100234.44
2022-09-30T15:21:17.521Z,100231.78
2022-09-30T15:23:52.344Z,100240.28
2022-09-30T15:26:25.612Z,100237.84
2022-09-30T15:28:57.889Z,100229.50
2022-09-30T15:31:31.703Z,100230.00
2022-09-30T15:34:24.291Z,100234.50
2022-09-30T15:37:10.476Z,100215.91
2022-09-30T15:40:05.408Z,100223.03
2022-09-30T15:42:45.896Z,100232.50
2022-09-30T15:45:18.495Z,100233.06
2022-09-30T15:47:56.382Z,100221.25
2022-09-30T15:50:38.147Z,100223.59
2022-09-30T15:53:25.392Z,100226.03
2022-09-30T15:55:59.396Z,100210.19
2022-09-30T15:58:39.310Z,100220.03
2022-09-30T16:01:21.411Z,100211.97
2022-09-30T16:04:02.576Z,100219.34
2022-09-30T16:06:43.070Z,100224.28
2022-09-30T16:09:20.045Z,100225.91
2022-09-30T16:12:12.514Z,100234.44
2022-09-30T16:14:50.838Z,100235.09
2022-09-30T16:17:29.265Z,100232.97
2022-09-30T16:20:07.765Z,100235.38
2022-09-30T16:22:41.851Z,100235.84
2022-09-30T16:25:31.912Z,100230.97
2022-09-30T16:28:14.850Z,100222.78
2022-09-30T16:30:50.043Z,100220.72
2022-09-30T16:33:21.433Z,100228.31
2022-09-30T16:35:52.723Z,100225.44
2022-09-30T16:38:24.018Z,100226.75
2022-09-30T16:40:55.572Z,100225.53
2022-09-30T16:43:26.886Z,100216.28
2022-09-30T16:45:59.805Z,100219.47
2022-09-30T16:48:31.489Z,100219.91
2022-09-30T16:51:16.888Z,100221.34
2022-09-30T16:53:48.225Z,100219.22
2022-09-30T16:56:19.985Z,100207.44
2022-09-30T16:58:51.349Z,100214.81
2022-09-30T17:01:25.538Z,100186.63
2022-09-30T17:03:57.783Z,100198.38
2022-09-30T17:06:32.093Z,100217.97
2022-09-30T17:09:04.835Z,100223.75
2022-09-30T17:11:38.013Z,100218.81
2022-09-30T17:14:09.762Z,100221.06
2022-09-30T17:16:41.161Z,100217.03
2022-09-30T17:19:13.512Z,100219.19
2022-09-30T17:21:44.992Z,100218.78
2022-09-30T17:24:16.693Z,100232.25
2022-09-30T17:26:48.019Z,100231.72
2022-09-30T17:29:31.859Z,100235.59
2022-09-30T17:32:03.977Z,100239.47
2022-09-30T17:34:35.345Z,100237.09
2022-09-30T17:39:42.885Z,100238.66
2022-09-30T17:42:33.990Z,100233.63
2022-09-30T17:45:05.893Z,100229.50
2022-09-30T17:47:39.566Z,100226.25
2022-09-30T17:50:12.800Z,100234.44
2022-09-30T17:52:44.205Z,100230.28
2022-09-30T17:55:15.585Z,100221.13
2022-09-30T17:57:46.853Z,100222.03
2022-09-30T18:00:19.267Z,100222.16
2022-09-30T18:02:50.528Z,100231.19
2022-09-30T18:05:23.344Z,100213.84
2022-09-30T18:07:54.684Z,100222.00
2022-09-30T18:10:27.132Z,100217.56
2022-09-30T18:12:59.630Z,100221.22
2022-09-30T18:15:31.113Z,100204.84
2022-09-30T18:18:02.370Z,100223.25
2022-09-30T18:20:33.637Z,100224.25
2022-09-30T18:23:04.998Z,100225.16
2022-09-30T18:25:36.580Z,100226.06
2022-09-30T18:28:08.754Z,100221.63
2022-09-30T18:30:40.339Z,100201.50
2022-09-30T18:33:11.835Z,100220.69
2022-09-30T18:35:43.411Z,100215.38
2022-09-30T18:38:14.948Z,100198.09
2022-09-30T18:40:46.327Z,100217.19
2022-09-30T18:43:17.680Z,100209.22
2022-09-30T18:45:53.946Z,100218.94
2022-09-30T18:48:26.304Z,100205.66
2022-09-30T18:51:03.209Z,100191.66
2022-09-30T18:53:34.785Z,100185.50
2022-09-30T18:56:06.340Z,100197.63
2022-09-30T18:58:39.310Z,100201.16
2022-09-30T19:01:11.138Z,100200.28
2022-09-30T19:03:42.557Z,100200.31
2022-09-30T19:06:14.885Z,100195.00
2022-09-30T19:08:46.159Z,100200.34
2022-09-30T19:11:18.517Z,100196.88
2022-09-30T19:13:52.530Z,100193.44
2022-09-30T19:16:25.965Z,100193.50
2022-09-30T19:19:01.301Z,100190.91
2022-09-30T19:21:36.757Z,100195.38
2022-09-30T19:24:09.071Z,100192.81
2022-09-30T19:26:40.808Z,100177.19
2022-09-30T19:29:12.179Z,100187.72
2022-09-30T19:31:45.219Z,100174.66
2022-09-30T19:34:29.822Z,100186.97
2022-09-30T19:37:03.406Z,100183.50
2022-09-30T19:39:44.632Z,100181.03
2022-09-30T19:42:18.267Z,100187.41
2022-09-30T19:44:49.787Z,100174.22
2022-09-30T19:47:21.099Z,100177.78
2022-09-30T19:49:55.147Z,100157.66
2022-09-30T19:52:27.470Z,100162.88
2022-09-30T19:55:09.515Z,100169.91
2022-09-30T19:57:44.720Z,100163.75
2022-09-30T20:00:16.050Z,100153.22
2022-09-30T20:02:47.440Z,100159.47
2022-09-30T20:05:18.770Z,100150.69
2022-09-30T20:07:51.160Z,100156.94
2022-09-30T20:10:23.966Z,100135.22
2022-09-30T20:12:55.263Z,100148.28
2022-09-30T20:15:46.348Z,100140.47
2022-09-30T20:18:19.671Z,100140.47
2022-09-30T20:20:50.982Z,100143.19
2022-09-30T20:23:22.380Z,100122.25
2022-09-30T20:25:54.120Z,100134.44
2022-09-30T20:28:25.433Z,100123.16
2022-09-30T20:30:56.836Z,100130.09
2022-09-30T20:33:28.184Z,100133.63
2022-09-30T20:36:01.349Z,100131.84
2022-09-30T20:38:33.396Z,100123.97
2022-09-30T20:41:05.910Z,100129.19
2022-09-30T20:43:37.177Z,100127.44
2022-09-30T20:46:09.478Z,100123.13
2022-09-30T20:48:41.150Z,100117.06
2022-09-30T20:51:14.798Z,100113.34
2022-09-30T20:53:50.871Z,100122.16
2022-09-30T20:56:23.978Z,100114.19
2022-09-30T20:58:55.230Z,100118.59
2022-09-30T21:01:26.569Z,100111.63
2022-09-30T21:03:57.922Z,100118.50
2022-09-30T21:06:30.084Z,100093.94
2022-09-30T21:09:03.366Z,100117.59
2022-09-30T21:11:35.095Z,100109.66
2022-09-30T21:14:07.154Z,100107.94
2022-09-30T21:16:38.615Z,100100.00
2022-09-30T21:19:10.350Z,100104.34
2022-09-30T21:21:41.594Z,100100.81
2022-09-30T21:24:16.097Z,100096.44
2022-09-30T21:26:47.367Z,100092.88
2022-09-30T21:29:18.975Z,100093.69
2022-09-30T21:31:50.378Z,100077.91
2022-09-30T21:34:21.785Z,100087.47
2022-09-30T21:36:53.268Z,100092.72
2022-09-30T21:39:24.511Z,100079.44
2022-09-30T21:41:55.883Z,100060.16
2022-09-30T21:44:27.318Z,100074.13
2022-09-30T21:46:58.576Z,100069.72
2022-09-30T21:49:30.008Z,100063.53
2022-09-30T21:52:01.673Z,100061.75
2022-09-30T21:54:33.040Z,100063.47
2022-09-30T21:57:05.267Z,100056.41
2022-09-30T21:59:38.635Z,100061.63
2022-09-30T22:02:10.977Z,100063.28
2022-09-30T22:04:42.271Z,100057.00
2022-09-30T22:07:15.344Z,100053.38
2022-09-30T22:09:46.585Z,100054.09
2022-09-30T22:12:17.873Z,100056.56
2022-09-30T22:14:49.153Z,100051.91
2022-09-30T22:17:20.406Z,100043.72
2022-09-30T22:19:51.749Z,100039.31
2022-09-30T22:22:24.677Z,100042.63
2022-09-30T22:24:55.937Z,100055.69
2022-09-30T22:27:27.293Z,100054.72
2022-09-30T22:29:59.686Z,100021.31
2022-09-30T22:32:31.099Z,100040.47
2022-09-30T22:35:21.819Z,100023.81
2022-09-30T22:38:11.763Z,100043.06
2022-09-30T22:40:43.230Z,100031.75
2022-09-30T22:43:15.214Z,100037.91
2022-09-30T22:45:47.711Z,100033.59
2022-09-30T22:48:19.233Z,100014.44
2022-09-30T22:50:50.487Z,100028.53
2022-09-30T22:53:21.808Z,100024.28
2022-09-30T22:55:53.569Z,100008.75
2022-09-30T22:58:26.190Z,100008.84
2022-09-30T23:00:58.728Z,100001.00
2022-09-30T23:03:30.090Z,100012.31
2022-09-30T23:06:05.090Z,100005.53
2022-09-30T23:08:41.651Z,100004.44
2022-09-30T23:11:16.355Z,100000.78
2022-09-30T23:13:47.702Z,100011.22
2022-09-30T23:16:19.053Z,100004.00
2022-09-30T23:18:50.581Z,99994.97
2022-09-30T23:21:22.055Z,99991.22
2022-09-30T23:23:53.713Z,99943.22
2022-09-30T23:26:27.348Z,99965.66
2022-09-30T23:29:04.347Z,99982.06
2022-09-30T23:31:36.123Z,99977.59
2022-09-30T23:34:07.832Z,99960.94
2022-09-30T23:36:39.162Z,99945.06
2022-09-30T23:39:19.371Z,99969.34
2022-09-30T23:41:50.844Z,99964.97
2022-09-30T23:44:22.123Z,99963.22
2022-09-30T23:47:12.355Z,99963.31
2022-09-30T23:49:43.820Z,99952.94
2022-09-30T23:52:15.311Z,99964.41
2022-09-30T23:54:47.119Z,99962.78
2022-09-30T23:57:18.402Z,99948.78
2022-09-30T23:59:49.699Z,99951.47
